createdAt,value
2023-05-19T00:00:18.751Z,14.55
2023-05-19T00:04:18.600Z,14.50
2023-05-19T00:08:19.303Z,14.43
2023-05-19T00:12:18.839Z,14.34
2023-05-19T00:16:18.770Z,14.29
2023-05-19T00:20:18.376Z,14.23
2023-05-19T00:24:18.337Z,14.19
2023-05-19T00:28:18.412Z,14.14
2023-05-19T00:32:18.387Z,14.09
2023-05-19T00:36:18.598Z,14.03
2023-05-19T00:40:18.664Z,14.01
2023-05-19T00:44:18.726Z,14.00
2023-05-19T00:48:18.436Z,13.96
2023-05-19T00:52:18.844Z,13.91
2023-05-19T00:56:20.133Z,13.85
2023-05-19T01:00:19.410Z,13.79
2023-05-19T01:04:20.680Z,13.74
2023-05-19T01:08:18.747Z,13.72
2023-05-19T01:12:18.651Z,13.68
2023-05-19T01:16:25.271Z,13.63
2023-05-19T01:20:24.862Z,13.61
2023-05-19T01:24:31.355Z,13.58
2023-05-19T01:28:31.109Z,13.55
2023-05-19T01:32:20.364Z,13.54
2023-05-19T01:40:20.343Z,13.49
2023-05-19T01:52:18.758Z,13.47
2023-05-19T01:56:26.854Z,13.43
2023-05-19T02:00:28.495Z,13.41
2023-05-19T02:04:28.158Z,13.39
2023-05-19T02:08:23.821Z,13.37
2023-05-19T02:16:21.002Z,13.33
2023-05-19T02:20:21.043Z,13.32
2023-05-19T02:24:19.289Z,13.30
2023-05-19T02:28:18.816Z,13.27
2023-05-19T02:32:19.878Z,13.28
2023-05-19T02:36:18.741Z,13.25
2023-05-19T02:40:19.392Z,13.20
2023-05-19T02:44:18.693Z,13.15
2023-05-19T02:48:19.060Z,13.12
2023-05-19T02:52:18.721Z,13.11
2023-05-19T02:56:19.057Z,13.10
2023-05-19T03:04:19.265Z,13.11
2023-05-19T03:08:19.047Z,13.10
2023-05-19T03:12:18.946Z,13.09
2023-05-19T03:16:19.107Z,13.08
2023-05-19T03:20:18.978Z,13.03
2023-05-19T03:24:18.910Z,13.00
2023-05-19T03:28:18.997Z,12.98
2023-05-19T03:32:18.885Z,12.93
2023-05-19T03:36:19.135Z,12.90
2023-05-19T03:40:19.404Z,12.87
2023-05-19T03:44:18.976Z,12.86
2023-05-19T03:48:21.089Z,12.82
2023-05-19T03:52:19.093Z,12.75
2023-05-19T03:56:22.029Z,12.72
2023-05-19T04:00:19.333Z,12.68
2023-05-19T04:04:18.958Z,12.62
2023-05-19T04:08:19.172Z,12.58
2023-05-19T04:16:20.189Z,12.55
2023-05-19T04:20:19.345Z,12.49
2023-05-19T04:24:19.227Z,12.43
2023-05-19T04:28:19.401Z,12.41
2023-05-19T04:32:19.354Z,12.40
2023-05-19T04:36:20.598Z,12.37
2023-05-19T04:40:20.963Z,12.35
2023-05-19T04:44:19.487Z,12.36
2023-05-19T04:48:20.666Z,12.35
2023-05-19T04:52:20.765Z,12.36
2023-05-19T05:04:19.182Z,12.39
2023-05-19T05:12:21.116Z,12.40
2023-05-19T05:16:19.634Z,12.42
2023-05-19T05:20:20.563Z,12.46
2023-05-19T05:24:20.017Z,12.51
2023-05-19T05:28:19.572Z,12.53
2023-05-19T05:32:19.708Z,12.54
2023-05-19T05:36:19.590Z,12.56
2023-05-19T05:40:19.389Z,12.54
2023-05-19T05:48:19.845Z,12.56
2023-05-19T05:56:20.597Z,12.55
2023-05-19T06:00:21.287Z,12.58
2023-05-19T06:04:20.021Z,12.60
2023-05-19T06:08:19.516Z,12.63
2023-05-19T06:12:19.763Z,12.68
2023-05-19T06:16:19.846Z,12.73
2023-05-19T06:20:19.546Z,12.68
2023-05-19T06:24:19.326Z,12.59
2023-05-19T06:28:19.954Z,12.60
2023-05-19T06:32:19.954Z,12.61
2023-05-19T06:36:19.704Z,12.62
2023-05-19T06:40:19.731Z,12.67
2023-05-19T06:44:21.145Z,12.74
2023-05-19T06:48:19.617Z,12.83
2023-05-19T06:52:20.181Z,12.96
2023-05-19T06:56:20.559Z,12.99
2023-05-19T07:00:21.386Z,13.01
2023-05-19T07:04:19.814Z,13.00
2023-05-19T07:08:19.836Z,12.98
2023-05-19T07:16:19.992Z,13.04
2023-05-19T07:20:19.629Z,13.07
2023-05-19T07:24:20.394Z,13.09
2023-05-19T07:28:19.590Z,13.15
2023-05-19T07:32:19.783Z,13.22
2023-05-19T07:36:19.788Z,13.30
2023-05-19T07:40:19.993Z,13.43
2023-05-19T07:44:19.554Z,13.57
2023-05-19T07:48:21.381Z,13.71
2023-05-19T07:52:19.597Z,13.82
2023-05-19T07:56:20.460Z,13.85
2023-05-19T08:00:19.953Z,13.86
2023-05-19T08:04:20.006Z,13.93
2023-05-19T08:08:20.881Z,14.07
2023-05-19T08:12:19.929Z,14.26
2023-05-19T08:16:20.282Z,14.40
2023-05-19T08:20:21.959Z,14.52
2023-05-19T08:24:20.085Z,14.59
2023-05-19T08:28:20.020Z,14.69
2023-05-19T08:32:19.914Z,14.73
2023-05-19T08:36:22.194Z,14.78
2023-05-19T08:40:20.323Z,14.85
2023-05-19T08:44:19.834Z,14.91
2023-05-19T08:48:21.293Z,14.96
2023-05-19T08:52:32.583Z,15.02
2023-05-19T08:56:23.110Z,15.00
2023-05-19T09:00:20.323Z,15.04
2023-05-19T09:04:20.065Z,15.07
2023-05-19T09:08:19.839Z,15.08
2023-05-19T09:12:20.459Z,15.15
2023-05-19T09:16:20.559Z,15.20
2023-05-19T09:20:20.070Z,15.24
2023-05-19T09:24:24.739Z,15.29
2023-05-19T09:28:23.535Z,15.28
2023-05-19T09:32:24.525Z,15.24
2023-05-19T09:36:20.059Z,15.30
2023-05-19T09:40:20.095Z,15.36
2023-05-19T09:44:22.198Z,15.39
2023-05-19T09:48:43.932Z,15.35
2023-05-19T09:53:02.813Z,15.32
2023-05-19T09:56:22.696Z,15.41
2023-05-19T10:00:21.634Z,15.57
2023-05-19T10:04:20.988Z,15.70
2023-05-19T10:08:23.065Z,15.77
2023-05-19T10:12:21.060Z,15.84
2023-05-19T10:16:21.115Z,15.82
2023-05-19T10:20:19.986Z,15.86
2023-05-19T10:24:20.623Z,15.98
2023-05-19T10:28:24.427Z,16.06
2023-05-19T10:32:25.540Z,16.26
2023-05-19T10:36:38.415Z,16.49
2023-05-19T10:40:26.553Z,16.58
2023-05-19T10:44:30.408Z,16.69
2023-05-19T10:48:20.666Z,16.70
2023-05-19T10:52:21.883Z,16.75
2023-05-19T10:56:29.886Z,16.77
2023-05-19T11:00:27.221Z,16.86
2023-05-19T11:04:40.263Z,16.88
2023-05-19T11:08:31.350Z,16.84
2023-05-19T11:12:21.094Z,16.90
2023-05-19T11:16:26.613Z,17.02
2023-05-19T11:20:21.583Z,17.16
2023-05-19T11:24:34.817Z,17.22
2023-05-19T11:28:24.848Z,17.26
2023-05-19T11:32:21.313Z,17.33
2023-05-19T11:36:21.684Z,17.41
2023-05-19T11:40:21.338Z,17.51
2023-05-19T11:44:20.462Z,17.58
2023-05-19T11:48:21.226Z,17.66
2023-05-19T11:52:22.013Z,17.82
2023-05-19T11:56:20.600Z,17.98
2023-05-19T12:00:22.049Z,18.04
2023-05-19T12:04:20.250Z,18.08
2023-05-19T12:08:20.507Z,18.05
2023-05-19T12:12:22.007Z,18.03
2023-05-19T12:16:20.573Z,18.04
2023-05-19T12:20:21.214Z,18.03
2023-05-19T12:24:21.011Z,18.08
2023-05-19T12:28:20.375Z,18.10
2023-05-19T12:32:22.663Z,18.08
2023-05-19T12:36:22.677Z,18.07
2023-05-19T12:40:21.115Z,18.10
2023-05-19T12:48:21.872Z,18.07
2023-05-19T12:56:21.203Z,18.04
2023-05-19T13:00:21.861Z,18.01
2023-05-19T13:04:20.754Z,17.95
2023-05-19T13:08:22.879Z,17.86
2023-05-19T13:12:20.740Z,17.78
2023-05-19T13:16:20.513Z,17.72
2023-05-19T13:20:21.009Z,17.71
2023-05-19T13:24:20.488Z,17.69
2023-05-19T13:28:20.662Z,17.66
2023-05-19T13:32:20.633Z,17.62
2023-05-19T13:36:20.635Z,17.56
2023-05-19T13:40:21.978Z,17.52
2023-05-19T13:44:20.682Z,17.49
2023-05-19T13:48:20.764Z,17.44
2023-05-19T13:52:21.510Z,17.45
2023-05-19T13:56:20.625Z,17.47
2023-05-19T14:00:20.825Z,17.46
2023-05-19T14:04:20.824Z,17.44
2023-05-19T14:08:21.689Z,17.43
2023-05-19T14:12:23.555Z,17.47
2023-05-19T14:16:21.980Z,17.49
2023-05-19T14:20:20.994Z,17.50
2023-05-19T14:24:20.802Z,17.56
2023-05-19T14:28:20.781Z,17.61
2023-05-19T14:32:20.927Z,17.72
2023-05-19T14:36:20.790Z,17.85
2023-05-19T14:40:20.839Z,17.98
2023-05-19T14:44:20.766Z,18.04
2023-05-19T14:48:21.163Z,18.29
2023-05-19T14:52:21.577Z,18.52
2023-05-19T14:56:21.544Z,18.62
2023-05-19T15:00:21.142Z,18.69
2023-05-19T15:04:21.158Z,18.80
2023-05-19T15:08:20.804Z,18.87
2023-05-19T15:12:21.147Z,18.86
2023-05-19T15:16:20.871Z,18.82
2023-05-19T15:20:20.964Z,18.78
2023-05-19T15:24:21.577Z,18.79
2023-05-19T15:32:20.958Z,18.78
2023-05-19T15:36:20.916Z,18.79
2023-05-19T15:40:21.054Z,18.73
2023-05-19T15:44:21.245Z,18.64
2023-05-19T15:48:21.037Z,18.59
2023-05-19T15:56:21.521Z,18.50
2023-05-19T16:00:21.103Z,18.49
2023-05-19T16:04:21.373Z,18.52
2023-05-19T16:08:25.006Z,18.64
2023-05-19T16:12:21.276Z,18.62
2023-05-19T16:16:21.186Z,18.64
2023-05-19T16:20:25.716Z,18.66
2023-05-19T16:24:21.120Z,18.76
2023-05-19T16:32:21.425Z,18.63
2023-05-19T16:36:21.747Z,18.49
2023-05-19T16:40:21.197Z,18.47
2023-05-19T16:44:21.188Z,18.46
2023-05-19T16:48:21.251Z,18.38
2023-05-19T16:52:21.304Z,18.48
2023-05-19T16:56:21.297Z,18.42
2023-05-19T17:00:21.162Z,18.49
2023-05-19T17:04:21.320Z,18.75
2023-05-19T17:08:21.120Z,19.17
2023-05-19T17:12:21.311Z,19.28
2023-05-19T17:16:22.370Z,19.14
2023-05-19T17:20:21.220Z,18.98
2023-05-19T17:24:21.198Z,18.82
2023-05-19T17:28:21.682Z,19.00
2023-05-19T17:32:24.546Z,19.33
2023-05-19T17:36:21.474Z,19.59
2023-05-19T17:40:21.532Z,19.76
2023-05-19T17:44:21.350Z,19.92
2023-05-19T17:48:21.263Z,19.94
2023-05-19T17:52:21.732Z,19.69
2023-05-19T17:56:22.104Z,19.47
2023-05-19T18:00:22.102Z,19.30
2023-05-19T18:04:21.499Z,19.22
2023-05-19T18:08:21.708Z,19.31
2023-05-19T18:12:21.770Z,19.41
2023-05-19T18:16:21.489Z,19.23
2023-05-19T18:20:21.516Z,19.03
2023-05-19T18:24:21.489Z,18.85
2023-05-19T18:28:22.087Z,18.69
2023-05-19T18:32:21.663Z,18.51
2023-05-19T18:36:21.948Z,18.39
2023-05-19T18:40:21.492Z,18.23
2023-05-19T18:44:21.659Z,18.08
2023-05-19T18:48:24.442Z,17.99
2023-05-19T18:52:21.492Z,17.86
2023-05-19T18:56:22.271Z,17.76
2023-05-19T19:00:21.668Z,17.69
2023-05-19T19:04:21.817Z,17.60
2023-05-19T19:08:21.889Z,17.51
2023-05-19T19:12:21.673Z,17.43
2023-05-19T19:16:21.647Z,17.37
2023-05-19T19:20:22.174Z,17.30
2023-05-19T19:24:21.574Z,17.22
2023-05-19T19:28:21.811Z,17.14
2023-05-19T19:32:21.922Z,16.99
2023-05-19T19:36:21.739Z,16.90
2023-05-19T19:40:21.590Z,16.80
2023-05-19T19:44:22.852Z,16.72
2023-05-19T19:48:21.564Z,16.64
2023-05-19T19:52:21.654Z,16.55
2023-05-19T19:56:23.555Z,16.47
2023-05-19T20:00:22.114Z,16.39
2023-05-19T20:04:22.030Z,16.32
2023-05-19T20:08:21.903Z,16.25
2023-05-19T20:12:21.804Z,16.18
2023-05-19T20:16:23.053Z,16.12
2023-05-19T20:20:21.732Z,16.05
2023-05-19T20:24:21.749Z,15.98
2023-05-19T20:28:23.234Z,15.91
2023-05-19T20:32:22.152Z,15.84
2023-05-19T20:36:21.856Z,15.78
2023-05-19T20:40:22.024Z,15.69
2023-05-19T20:44:21.828Z,15.61
2023-05-19T20:48:22.285Z,15.51
2023-05-19T20:52:21.805Z,15.44
2023-05-19T20:56:21.994Z,15.38
2023-05-19T21:00:21.960Z,15.32
2023-05-19T21:04:21.954Z,15.25
2023-05-19T21:08:22.398Z,15.18
2023-05-19T21:12:24.106Z,15.11
2023-05-19T21:16:22.435Z,15.04
2023-05-19T21:20:21.975Z,14.98
2023-05-19T21:24:21.995Z,14.91
2023-05-19T21:28:22.291Z,14.83
2023-05-19T21:32:21.914Z,14.78
2023-05-19T21:36:22.123Z,14.73
2023-05-19T21:40:21.997Z,14.68
2023-05-19T21:44:22.765Z,14.62
2023-05-19T21:48:22.041Z,14.54
2023-05-19T21:52:21.985Z,14.49
2023-05-19T21:56:21.940Z,14.42
2023-05-19T22:00:22.172Z,14.36
2023-05-19T22:04:22.072Z,14.31
2023-05-19T22:08:22.084Z,14.27
2023-05-19T22:12:22.119Z,14.23
2023-05-19T22:16:22.271Z,14.17
2023-05-19T22:20:22.021Z,14.10
2023-05-19T22:24:22.158Z,14.05
2023-05-19T22:28:22.080Z,13.99
2023-05-19T22:32:22.140Z,13.93
2023-05-19T22:36:22.578Z,13.85
2023-05-19T22:40:22.242Z,13.79
2023-05-19T22:44:22.080Z,13.76
2023-05-19T22:48:22.245Z,13.70
2023-05-19T22:52:22.144Z,13.65
2023-05-19T22:56:22.726Z,13.62
2023-05-19T23:00:22.165Z,13.54
2023-05-19T23:04:22.325Z,13.47
2023-05-19T23:08:22.294Z,13.40
2023-05-19T23:12:22.250Z,13.35
2023-05-19T23:16:22.317Z,13.31
2023-05-19T23:20:22.205Z,13.21
2023-05-19T23:24:22.188Z,13.14
2023-05-19T23:28:22.214Z,13.09
2023-05-19T23:32:22.201Z,13.03
2023-05-19T23:36:22.358Z,12.94
2023-05-19T23:40:22.355Z,12.86
2023-05-19T23:44:22.449Z,12.76
2023-05-19T23:48:22.317Z,12.64
2023-05-19T23:52:22.485Z,12.54
2023-05-19T23:56:22.301Z,12.47
